Time;durP1;ratioP1;P1;durP2;ratioP2;P2;SDS_P1;SDS_P2;PMS_P1;PMS_P2;Temp;Humidity;BMP_temperature;BMP_pressure;BME280_temperature;BME280_humidity;BME280_pressure;Samples;Min_cycle;Max_cycle;Signal;HPM_P1;HPM_P2
2023/09/25 00:02:54;;;;;;;3.50;2.40;;;;;;;17.47;74.11;100021.36;232441;214;138605;-59
2023/09/25 00:08:01;;;;;;;4.30;2.50;;;;;;;17.50;73.81;100013.95;232621;215;147585;-58
2023/09/25 00:13:09;;;;;;;3.50;2.80;;;;;;;17.55;73.81;100016.29;232597;215;139845;-60
2023/09/25 00:18:14;;;;;;;3.10;2.80;;;;;;;17.57;73.84;100013.29;232664;214;136946;-61
2023/09/25 00:23:20;;;;;;;4.80;3.10;;;;;;;17.58;73.75;100017.81;232613;215;146014;-60
2023/09/25 00:28:25;;;;;;;5.70;3.10;;;;;;;17.56;73.79;100019.27;232451;214;139763;-64
2023/09/25 00:33:30;;;;;;;3.80;2.80;;;;;;;17.56;74.03;100023.58;232658;215;139083;-62
2023/09/25 00:38:35;;;;;;;4.50;2.90;;;;;;;17.56;73.94;100016.95;232615;215;147712;-63
2023/09/25 00:43:40;;;;;;;5.20;3.40;;;;;;;17.60;73.85;100016.23;232729;214;139256;-63
2023/09/25 00:48:46;;;;;;;5.80;3.30;;;;;;;17.63;73.65;100004.36;232584;214;137520;-62
2023/09/25 00:53:51;;;;;;;4.70;3.10;;;;;;;17.63;73.56;100002.59;232622;215;146938;-62
2023/09/25 00:58:57;;;;;;;3.30;3.00;;;;;;;17.60;73.74;99993.64;232560;215;139455;-62
2023/09/25 01:04:03;;;;;;;3.80;3.10;;;;;;;17.60;73.86;99993.84;232694;214;138558;-60
2023/09/25 01:09:09;;;;;;;7.20;3.20;;;;;;;17.59;73.91;99991.56;232594;214;147887;-61
2023/09/25 01:14:13;;;;;;;6.60;2.90;;;;;;;17.57;73.98;99989.90;232616;214;140598;-65
2023/09/25 01:19:19;;;;;;;5.00;3.10;;;;;;;17.61;74.11;99990.17;232600;214;137571;-61
2023/09/25 01:24:25;;;;;;;4.50;3.40;;;;;;;17.64;74.16;99985.64;232528;214;146301;-63
2023/09/25 01:29:30;;;;;;;;;;;;;;;17.63;74.19;99983.18;232460;214;140313;-60
2023/09/25 01:34:35;;;;;;;5.70;3.60;;;;;;;17.60;74.11;99982.17;232656;213;131114;-61
2023/09/25 01:39:43;;;;;;;6.30;3.70;;;;;;;17.54;74.42;99984.25;232504;214;146526;-59
2023/09/25 01:44:48;;;;;;;7.90;3.80;;;;;;;17.49;74.74;99988.90;232574;215;138782;-60
2023/09/25 01:49:54;;;;;;;4.20;3.20;;;;;;;17.50;74.87;99982.91;232650;214;137302;-60
2023/09/25 01:55:03;;;;;;;5.00;3.30;;;;;;;17.54;75.02;99977.02;232464;215;146474;-59
2023/09/25 02:00:13;;;;;;;6.00;3.60;;;;;;;17.60;75.15;99978.70;232464;214;140670;-60
2023/09/25 02:05:20;;;;;;;7.80;3.70;;;;;;;17.63;75.20;99984.41;232606;214;136552;-54
2023/09/25 02:10:28;;;;;;;4.30;3.90;;;;;;;17.62;75.19;99982.17;232544;214;147593;-58
2023/09/25 02:15:35;;;;;;;6.50;3.70;;;;;;;17.63;75.11;99976.20;232547;214;139050;-59
2023/09/25 02:20:40;;;;;;;7.20;3.60;;;;;;;17.64;75.22;99973.59;232514;214;139493;-55
2023/09/25 02:25:48;;;;;;;7.20;3.80;;;;;;;17.70;75.22;99975.28;232807;215;146577;-58
2023/09/25 02:30:55;;;;;;;5.80;3.90;;;;;;;17.74;75.12;99975.13;232634;214;139553;-56
2023/09/25 02:36:11;;;;;;;6.40;3.70;;;;;;;17.74;75.15;99976.09;232704;215;137618;-58
2023/09/25 02:41:15;;;;;;;6.50;4.30;;;;;;;17.73;75.34;99976.61;232697;215;147891;-57
2023/09/25 02:46:21;;;;;;;5.50;3.60;;;;;;;17.71;75.45;99975.73;232693;215;138893;-56
2023/09/25 02:51:27;;;;;;;5.40;4.00;;;;;;;17.71;75.48;99982.75;232724;215;138186;-60
2023/09/25 02:56:34;;;;;;;5.90;4.50;;;;;;;17.74;75.39;99983.77;232801;215;146256;-60
2023/09/25 03:01:40;;;;;;;7.10;4.70;;;;;;;17.74;75.40;99987.14;232527;214;142129;-58
2023/09/25 03:06:47;;;;;;;6.20;4.40;;;;;;;17.74;75.57;99994.91;232491;214;136867;-60
2023/09/25 03:11:53;;;;;;;6.70;4.70;;;;;;;17.71;75.60;99998.02;232634;214;146038;-59
2023/09/25 03:16:58;;;;;;;5.30;4.00;;;;;;;17.71;75.83;100001.27;232616;214;139234;-60
2023/09/25 03:22:05;;;;;;;7.20;4.20;;;;;;;17.73;75.99;100000.70;232471;214;137939;-59
2023/09/25 03:27:10;;;;;;;6.10;4.40;;;;;;;17.80;75.95;99993.06;232517;214;149637;-55
2023/09/25 03:32:16;;;;;;;7.30;4.70;;;;;;;17.85;75.87;99988.19;232693;215;140870;-61
2023/09/25 03:37:22;;;;;;;7.30;5.40;;;;;;;17.87;75.60;99993.64;232602;214;137900;-60
2023/09/25 03:42:29;;;;;;;6.70;4.60;;;;;;;17.84;75.61;99994.20;232594;214;146841;-64
2023/09/25 03:47:38;;;;;;;7.30;4.80;;;;;;;17.78;75.72;99998.95;232409;215;139092;-60
2023/09/25 03:52:46;;;;;;;9.30;4.30;;;;;;;17.74;75.84;99996.84;232580;215;137952;-63
2023/09/25 03:57:52;;;;;;;6.00;5.00;;;;;;;17.75;75.97;99999.15;232678;215;148578;-60
2023/09/25 04:02:59;;;;;;;6.00;4.80;;;;;;;17.79;76.09;99998.72;232546;214;140191;-60
2023/09/25 04:08:05;;;;;;;6.90;5.20;;;;;;;17.81;76.11;100000.55;232678;214;136927;-60
2023/09/25 04:13:11;;;;;;;7.40;4.70;;;;;;;17.79;76.04;100002.27;232650;214;145839;-63
2023/09/25 04:18:18;;;;;;;7.30;4.20;;;;;;;17.77;76.02;100009.57;232490;214;139594;-63
2023/09/25 04:23:23;;;;;;;9.40;4.70;;;;;;;17.72;76.12;100008.48;232553;215;138793;-61
2023/09/25 04:28:30;;;;;;;6.60;4.60;;;;;;;17.78;76.24;100016.39;232572;215;146482;-61
2023/09/25 04:33:36;;;;;;;7.40;4.80;;;;;;;17.79;76.18;100019.70;232667;215;140239;-59
2023/09/25 04:38:41;;;;;;;7.40;5.40;;;;;;;17.78;76.21;100024.63;232798;215;138243;-58
2023/09/25 04:43:46;;;;;;;9.20;5.60;;;;;;;17.73;76.26;100017.94;232492;215;146813;-60
2023/09/25 04:48:51;;;;;;;9.40;5.40;;;;;;;17.68;76.54;100014.37;232544;214;140576;-61
2023/09/25 04:53:56;;;;;;;7.10;5.00;;;;;;;17.69;76.68;100014.13;232560;214;141502;-63
2023/09/25 04:59:05;;;;;;;10.40;5.50;;;;;;;17.73;76.57;100019.01;232366;214;147222;-61
2023/09/25 05:04:09;;;;;;;7.60;5.20;;;;;;;17.77;76.67;100025.98;232409;214;140115;-58
2023/09/25 05:09:15;;;;;;;7.60;6.00;;;;;;;17.78;76.68;100028.20;232476;214;136924;-58
2023/09/25 05:14:21;;;;;;;7.30;6.00;;;;;;;17.74;76.80;100030.95;232681;214;147448;-58
2023/09/25 05:19:26;;;;;;;10.10;5.40;;;;;;;17.71;76.90;100032.27;232606;214;139306;-57
2023/09/25 05:24:32;;;;;;;10.40;5.90;;;;;;;17.70;77.11;100034.34;232549;214;140099;-61
2023/09/25 05:29:40;;;;;;;9.10;7.80;;;;;;;17.73;77.21;100034.45;232446;214;148839;-57
2023/09/25 05:34:45;;;;;;;8.10;6.20;;;;;;;17.77;77.40;100034.56;232649;214;140261;-60
2023/09/25 05:39:52;;;;;;;9.20;7.40;;;;;;;17.79;77.32;100037.81;232686;215;138149;-59
2023/09/25 05:44:59;;;;;;;14.40;11.90;;;;;;;17.78;77.39;100038.84;232673;214;146677;-58
2023/09/25 05:50:10;;;;;;;61.50;53.00;;;;;;;17.81;77.87;100038.95;232618;214;139551;-59
2023/09/25 05:55:14;;;;;;;91.40;79.20;;;;;;;17.83;77.81;100038.10;232719;215;139462;-60
2023/09/25 06:00:22;;;;;;;14.10;10.80;;;;;;;17.89;77.95;100034.15;232776;215;146382;-60
2023/09/25 06:05:30;;;;;;;12.60;7.70;;;;;;;17.93;78.01;100039.99;232660;215;139617;-61
2023/09/25 06:10:36;;;;;;;106.90;95.10;;;;;;;17.92;78.06;100044.89;232733;215;138899;-62
2023/09/25 06:15:46;;;;;;;26.20;19.80;;;;;;;17.89;78.31;100059.14;232661;214;147613;-59
2023/09/25 06:20:53;;;;;;;11.00;7.50;;;;;;;17.89;78.64;100062.89;232816;214;139728;-61
2023/09/25 06:26:01;;;;;;;9.00;6.80;;;;;;;17.87;78.65;100060.25;232815;215;139448;-58
2023/09/25 06:31:08;;;;;;;12.00;7.60;;;;;;;17.90;78.88;100058.36;232696;215;146655;-59
2023/09/25 06:36:16;;;;;;;57.30;50.50;;;;;;;17.95;79.12;100057.29;232617;215;140092;-65
2023/09/25 06:41:22;;;;;;;14.50;12.00;;;;;;;18.03;79.42;100049.47;232556;214;137640;-60
2023/09/25 06:46:26;;;;;;;8.20;6.20;;;;;;;18.09;79.29;100047.16;232654;215;147843;-61
2023/09/25 06:51:31;;;;;;;9.90;6.40;;;;;;;18.16;79.29;100050.61;232734;214;139833;-56
2023/09/25 06:56:36;;;;;;;9.40;6.40;;;;;;;18.22;79.02;100046.95;232848;215;137695;-57
2023/09/25 07:01:46;;;;;;;9.90;7.20;;;;;;;18.20;78.93;100047.76;232516;215;148632;-60
2023/09/25 07:06:54;;;;;;;11.70;7.10;;;;;;;18.16;78.71;100054.69;232670;215;138890;-57
2023/09/25 07:12:01;;;;;;;10.10;6.10;;;;;;;18.14;78.97;100063.70;232680;215;138420;-63
2023/09/25 07:17:07;;;;;;;105.60;83.10;;;;;;;18.15;78.96;100058.91;232683;214;147368;-61
2023/09/25 07:22:10;;;;;;;11.80;8.70;;;;;;;18.19;78.98;100062.40;232642;215;139107;-58
2023/09/25 07:27:17;;;;;;;8.40;7.00;;;;;;;18.20;78.91;100064.27;232663;215;137374;-62
2023/09/25 07:32:22;;;;;;;10.20;7.30;;;;;;;18.21;78.85;100064.78;232585;215;149003;-60
2023/09/25 07:37:26;;;;;;;8.70;6.00;;;;;;;18.23;78.82;100070.23;232560;213;140858;-60
2023/09/25 07:42:33;;;;;;;8.20;6.30;;;;;;;18.24;78.91;100069.62;232566;214;138603;-62
2023/09/25 07:47:43;;;;;;;6.80;5.90;;;;;;;18.29;78.66;100070.44;232590;214;149038;-62
2023/09/25 07:52:48;;;;;;;9.10;6.50;;;;;;;18.37;78.62;100063.17;232461;214;139015;-62
2023/09/25 07:57:56;;;;;;;12.40;7.60;;;;;;;18.40;78.35;100066.30;232538;214;137070;-61
2023/09/25 08:03:06;;;;;;;8.30;5.90;;;;;;;18.46;78.26;100067.68;232636;214;149475;-59
2023/09/25 08:08:11;;;;;;;14.50;11.10;;;;;;;18.51;78.37;100069.45;232514;214;141643;-58
2023/09/25 08:13:17;;;;;;;10.00;6.50;;;;;;;18.63;78.19;100072.63;232416;214;138011;-59
2023/09/25 08:18:24;;;;;;;9.60;6.80;;;;;;;18.73;78.02;100067.02;232542;214;148016;-64
2023/09/25 08:23:32;;;;;;;7.10;6.10;;;;;;;18.78;77.66;100069.12;232494;214;139353;-62
2023/09/25 08:28:37;;;;;;;8.80;5.10;;;;;;;18.78;77.41;100066.99;232673;214;136934;-60
2023/09/25 08:33:43;;;;;;;7.60;5.10;;;;;;;18.72;76.89;100065.69;232779;214;148566;-60
2023/09/25 08:38:51;;;;;;;7.20;6.00;;;;;;;18.68;76.95;100068.59;232594;214;141896;-60
2023/09/25 08:43:57;;;;;;;11.10;6.20;;;;;;;18.67;76.96;100071.38;232591;214;137791;-62
2023/09/25 08:49:06;;;;;;;8.20;6.10;;;;;;;18.67;76.92;100077.85;232552;214;147741;-58
2023/09/25 08:54:11;;;;;;;7.80;5.80;;;;;;;18.65;76.99;100072.08;232581;214;139231;-60
2023/09/25 08:59:19;;;;;;;7.20;5.70;;;;;;;18.74;77.34;100076.31;232449;214;138029;-63
2023/09/25 09:04:25;;;;;;;10.00;5.50;;;;;;;18.83;76.96;100077.55;232442;213;147506;-60
2023/09/25 09:09:36;;;;;;;7.70;5.60;;;;;;;18.83;76.87;100075.95;232643;214;138963;-61
2023/09/25 09:14:43;;;;;;;6.30;5.60;;;;;;;18.81;76.88;100071.77;232579;214;141154;-58
2023/09/25 09:19:52;;;;;;;9.60;7.90;;;;;;;18.88;77.41;100062.55;232456;214;147908;-59
2023/09/25 09:24:58;;;;;;;8.00;5.70;;;;;;;18.97;77.26;100062.42;232483;214;140089;-61
2023/09/25 09:30:21;;;;;;;7.50;5.80;;;;;;;19.10;77.16;100056.31;232545;214;137702;-59
2023/09/25 09:35:30;;;;;;;149.00;117.00;;;;;;;19.30;77.31;100050.34;232573;214;148411;-62
2023/09/25 09:40:35;;;;;;;21.00;18.40;;;;;;;19.38;76.89;100048.77;232514;214;140247;-62
2023/09/25 09:45:41;;;;;;;16.40;13.50;;;;;;;19.50;76.85;100046.32;232752;214;138525;-57
2023/09/25 09:50:53;;;;;;;13.30;7.60;;;;;;;19.69;77.09;100045.70;232626;214;147414;-61
2023/09/25 09:55:58;;;;;;;19.50;12.90;;;;;;;20.00;76.77;100038.42;232591;214;140691;-61
2023/09/25 10:01:07;;;;;;;7.80;5.50;;;;;;;20.14;75.22;100046.77;232650;215;137858;-60
2023/09/25 10:06:13;;;;;;;11.50;5.90;;;;;;;20.11;74.58;100047.52;232686;214;149113;-58
2023/09/25 10:11:23;;;;;;;7.90;5.20;;;;;;;20.04;74.47;100050.63;232633;214;140957;-60
2023/09/25 10:17:03;;;;;;;8.70;5.00;;;;;;;19.97;74.53;100050.00;232632;214;137860;-59
2023/09/25 10:22:32;;;;;;;8.60;5.40;;;;;;;19.89;74.78;100049.27;232559;214;147726;-54
2023/09/25 10:27:39;;;;;;;6.10;5.30;;;;;;;19.88;74.90;100050.23;232691;214;138742;-62
2023/09/25 10:32:56;;;;;;;9.30;5.70;;;;;;;19.84;75.02;100046.23;232571;214;137624;-57
2023/09/25 10:38:28;;;;;;;303.00;250.80;;;;;;;19.81;75.04;100043.94;232642;214;147739;-56
2023/09/25 10:43:37;;;;;;;15.40;10.90;;;;;;;19.82;75.73;100042.63;232521;214;139457;-61
2023/09/25 10:48:43;;;;;;;13.80;6.70;;;;;;;19.96;76.10;100042.90;232680;214;139077;-58
2023/09/25 10:53:49;;;;;;;11.10;7.60;;;;;;;20.09;75.61;100040.31;232665;214;148381;-58
2023/09/25 10:58:57;;;;;;;11.60;6.90;;;;;;;20.13;75.22;100034.25;232581;214;139220;-60
2023/09/25 11:04:05;;;;;;;11.70;8.10;;;;;;;20.14;75.59;100035.90;232729;214;138128;-60
2023/09/25 11:09:17;;;;;;;10.80;7.00;;;;;;;20.32;75.94;100039.64;232608;214;147590;-60
2023/09/25 11:14:26;;;;;;;10.50;6.40;;;;;;;20.54;75.66;100035.05;232535;214;140277;-61
2023/09/25 11:19:33;;;;;;;9.80;6.30;;;;;;;20.65;74.64;100041.08;232626;214;138333;-63
2023/09/25 11:24:40;;;;;;;14.30;6.50;;;;;;;20.71;74.32;100035.83;232780;214;147756;-61
2023/09/25 11:29:49;;;;;;;7.20;5.70;;;;;;;20.76;74.08;100031.98;232651;214;139157;-63
2023/09/25 11:34:53;;;;;;;7.90;5.70;;;;;;;20.79;73.65;100031.91;232799;214;137766;-61
2023/09/25 11:40:05;;;;;;;7.00;4.50;;;;;;;20.80;73.53;100034.36;232723;214;148140;-59
2023/09/25 11:45:13;;;;;;;5.70;4.40;;;;;;;20.86;73.17;100031.45;232505;214;141085;-63
2023/09/25 11:50:20;;;;;;;8.60;4.90;;;;;;;20.97;73.61;100025.76;232570;214;138913;-63
2023/09/25 11:55:28;;;;;;;7.00;5.10;;;;;;;21.07;74.74;100026.16;232612;215;147908;-62
2023/09/25 12:00:43;;;;;;;8.10;4.90;;;;;;;21.11;74.51;100023.98;232570;214;140794;-61
2023/09/25 12:05:53;;;;;;;6.50;4.80;;;;;;;21.13;74.19;100029.07;232667;215;138088;-59
2023/09/25 12:10:58;;;;;;;9.60;6.60;;;;;;;21.11;74.13;100027.42;232627;214;148347;-63
2023/09/25 12:16:04;;;;;;;7.20;4.40;;;;;;;21.10;73.95;100022.64;232688;215;140453;-58
2023/09/25 12:21:10;;;;;;;7.30;4.70;;;;;;;21.16;73.93;100018.83;232858;214;138641;-58
2023/09/25 12:26:16;;;;;;;6.90;4.60;;;;;;;21.20;73.62;100012.74;232686;215;149404;-59
2023/09/25 12:31:21;;;;;;;7.20;5.10;;;;;;;21.23;73.54;100011.39;232663;215;138879;-61
2023/09/25 12:36:28;;;;;;;8.80;4.60;;;;;;;21.31;73.38;100001.96;232771;215;137595;-59
2023/09/25 12:41:32;;;;;;;4.80;3.70;;;;;;;21.34;73.05;99999.20;231879;215;1012755;-59
2023/09/25 12:46:38;;;;;;;5.90;3.60;;;;;;;21.36;73.09;100004.42;232623;215;141771;-59
2023/09/25 12:51:47;;;;;;;20.90;15.40;;;;;;;21.42;72.77;100007.09;232867;215;138757;-59
2023/09/25 12:56:53;;;;;;;9.70;6.70;;;;;;;21.47;72.61;100009.92;232583;215;149185;-59
2023/09/25 13:01:59;;;;;;;12.20;9.00;;;;;;;21.48;72.33;100013.22;232636;215;139486;-59
2023/09/25 13:07:06;;;;;;;10.70;6.10;;;;;;;21.49;72.24;100012.08;232704;215;138450;-57
2023/09/25 13:12:11;;;;;;;7.40;4.90;;;;;;;21.50;72.16;100012.33;232587;215;148964;-59
2023/09/25 13:17:18;;;;;;;8.90;4.40;;;;;;;21.49;72.21;100012.95;232602;214;139676;-59
2023/09/25 13:22:25;;;;;;;6.20;4.40;;;;;;;21.45;72.09;100021.46;232802;215;138095;-59
2023/09/25 13:27:44;;;;;;;8.90;5.10;;;;;;;21.46;71.92;100026.02;232779;215;149995;-59
2023/09/25 13:32:49;;;;;;;17.20;6.80;;;;;;;21.45;71.48;100029.41;232632;214;139447;-62
2023/09/25 13:37:58;;;;;;;9.10;6.10;;;;;;;21.35;71.47;100030.86;232684;215;138912;-59
2023/09/25 13:43:03;;;;;;;9.60;5.50;;;;;;;21.20;71.59;100027.48;232686;214;150912;-60
2023/09/25 13:48:15;;;;;;;8.50;5.60;;;;;;;21.13;71.82;100025.27;232628;215;139925;-59
2023/09/25 13:53:21;;;;;;;38.80;30.70;;;;;;;21.05;72.01;100023.45;232725;215;137186;-60
2023/09/25 13:58:32;;;;;;;9.50;5.70;;;;;;;20.93;72.36;100024.49;232748;215;148202;-60
2023/09/25 14:03:36;;;;;;;9.40;5.60;;;;;;;20.89;72.66;100027.06;232695;215;140127;-61
2023/09/25 14:08:44;;;;;;;12.00;6.00;;;;;;;20.81;72.74;100026.48;232758;215;141379;-61
2023/09/25 14:13:50;;;;;;;10.00;5.60;;;;;;;20.73;73.05;100026.27;232745;215;148683;-60
2023/09/25 14:18:57;;;;;;;10.50;5.90;;;;;;;20.64;73.48;100026.80;232795;215;140505;-60
2023/09/25 14:24:02;;;;;;;6.70;5.00;;;;;;;20.52;73.85;100030.28;232816;215;137994;-59
2023/09/25 14:29:08;;;;;;;8.90;4.90;;;;;;;20.49;74.10;100033.98;232684;215;147726;-60
2023/09/25 14:34:14;;;;;;;7.80;5.40;;;;;;;20.49;74.48;100029.83;232869;215;139457;-62
2023/09/25 14:43:20;;;;;;;10.40;5.70;;;;;;;20.50;74.94;100025.58;231245;224;724851;-62
2023/09/25 14:48:28;;;;;;;7.10;5.20;;;;;;;20.43;75.27;100033.27;232762;216;137270;-61
2023/09/25 14:53:35;;;;;;;8.00;5.00;;;;;;;20.32;75.67;100032.58;232793;215;145439;-62
2023/09/25 15:02:14;;;;;;;25.00;17.40;;;;;;;20.32;76.06;100029.40;231224;226;698067;-64
2023/09/25 15:07:18;;;;;;;18.10;11.50;;;;;;;20.53;75.96;100019.79;232383;219;137471;-64
2023/09/25 15:12:26;;;;;;;13.80;9.20;;;;;;;20.69;75.32;100019.13;232641;217;143932;-63
2023/09/25 15:17:31;;;;;;;10.40;7.50;;;;;;;20.71;75.04;100019.80;232644;218;139449;-61
2023/09/25 15:22:36;;;;;;;11.60;6.90;;;;;;;20.75;74.94;100022.49;232917;217;138243;-64
2023/09/25 15:27:42;;;;;;;;;;;;;;;20.83;74.68;100026.69;232923;217;143558;-63
2023/09/25 15:32:48;;;;;;;10.20;6.50;;;;;;;20.90;74.44;100030.95;232834;217;138748;-64
2023/09/25 15:37:54;;;;;;;9.50;6.60;;;;;;;20.94;74.20;100030.05;232931;216;137717;-64
2023/09/25 15:42:59;;;;;;;7.30;6.40;;;;;;;20.99;74.09;100028.99;232932;216;143923;-63
2023/09/25 15:48:07;;;;;;;10.10;6.70;;;;;;;21.00;73.57;100030.42;232890;216;141285;-60
2023/09/25 15:53:10;;;;;;;9.20;5.90;;;;;;;20.98;73.55;100031.32;232934;216;137907;-62
2023/09/25 15:58:16;;;;;;;6.90;5.50;;;;;;;20.91;73.77;100026.51;232928;216;145683;-61
2023/09/25 16:03:23;;;;;;;11.00;5.80;;;;;;;20.92;73.65;100027.00;232917;216;140714;-61
2023/09/25 16:08:28;;;;;;;8.30;5.90;;;;;;;20.94;73.57;100022.42;232845;217;141135;-61
2023/09/25 16:13:33;;;;;;;9.20;6.40;;;;;;;20.98;73.53;100028.23;232897;217;146389;-61
2023/09/25 16:18:40;;;;;;;;;;;;;;;20.95;73.53;100027.41;232882;217;139307;-56
2023/09/25 16:23:44;;;;;;;13.80;8.30;;;;;;;20.89;73.40;100028.10;232909;216;131386;-62
2023/09/25 16:28:49;;;;;;;;;;;;;;;20.82;73.81;100025.68;233013;215;145547;-64
2023/09/25 16:33:54;;;;;;;9.50;6.80;;;;;;;20.78;73.80;100025.80;232872;216;139252;-62
2023/09/25 16:38:59;;;;;;;70.80;45.50;;;;;;;20.77;73.89;100026.38;232799;217;138466;-64
2023/09/25 16:44:04;;;;;;;12.30;9.40;;;;;;;20.68;74.14;100028.16;232919;217;148120;-62
2023/09/25 16:49:08;;;;;;;9.90;7.10;;;;;;;20.77;74.10;100024.83;232912;217;149882;-58
2023/09/25 16:54:12;;;;;;;12.30;7.20;;;;;;;20.75;74.00;100028.87;232929;216;137467;-63
2023/09/25 16:59:17;;;;;;;13.40;6.80;;;;;;;20.76;74.20;100030.36;232889;217;145818;-61
2023/09/25 17:04:22;;;;;;;16.20;6.20;;;;;;;20.71;74.28;100030.67;232929;216;138846;-60
2023/09/25 17:09:27;;;;;;;9.30;7.00;;;;;;;20.77;74.25;100029.73;232908;217;137579;-65
2023/09/25 17:15:22;;;;;;;38.60;28.40;;;;;;;20.84;74.17;100032.55;232108;220;724457;-60
2023/09/25 17:20:27;;;;;;;14.00;7.10;;;;;;;20.62;74.26;100033.08;232744;218;136945;-62
2023/09/25 17:25:36;;;;;;;14.60;7.70;;;;;;;20.44;74.40;100036.98;233004;216;142987;-62
2023/09/25 17:30:41;;;;;;;12.00;7.10;;;;;;;20.30;74.94;100037.83;232780;216;139287;-63
2023/09/25 17:36:05;;;;;;;10.70;7.70;;;;;;;20.20;75.52;100041.77;232993;216;137633;-59
2023/09/25 17:41:10;;;;;;;12.90;8.30;;;;;;;20.16;75.74;100040.98;233043;216;143924;-57
2023/09/25 17:46:16;;;;;;;133.90;109.60;;;;;;;20.11;76.05;100040.17;233188;216;138986;-62
2023/09/25 17:51:22;;;;;;;;;;;;;;;20.11;76.43;100039.06;233013;216;139430;-64
2023/09/25 17:56:27;;;;;;;11.70;9.30;;;;;;;20.03;76.55;100036.52;233011;216;143635;-61
2023/09/25 18:01:33;;;;;;;12.20;7.60;;;;;;;19.94;76.96;100043.92;232781;217;138828;-61
2023/09/25 18:06:38;;;;;;;13.30;7.60;;;;;;;19.91;77.34;100044.20;232916;216;137488;-64
2023/09/25 18:11:44;;;;;;;11.10;7.80;;;;;;;19.92;77.59;100046.83;232899;216;147330;-63
2023/09/25 18:16:50;;;;;;;13.40;8.60;;;;;;;19.94;77.79;100049.55;232699;214;139479;-63
2023/09/25 18:22:02;;;;;;;11.90;9.40;;;;;;;19.97;77.79;100052.19;232804;214;137494;-60
2023/09/25 18:27:09;;;;;;;36.00;27.70;;;;;;;19.92;77.83;100056.78;232809;214;145626;-62
2023/09/25 18:32:12;;;;;;;23.40;13.40;;;;;;;19.98;78.24;100049.39;232760;215;139013;-65
2023/09/25 18:37:20;;;;;;;;;;;;;;;20.02;77.95;100054.79;232774;214;138432;-63
2023/09/25 18:42:26;;;;;;;12.00;8.50;;;;;;;19.99;77.86;100062.05;232804;214;145625;-62
2023/09/25 18:47:30;;;;;;;17.60;10.20;;;;;;;19.97;78.11;100064.42;232763;215;140287;-61
2023/09/25 18:52:37;;;;;;;12.60;8.40;;;;;;;19.95;78.14;100067.97;232840;214;138259;-60
2023/09/25 18:57:42;;;;;;;14.20;9.20;;;;;;;19.94;78.18;100069.15;232761;215;146020;-61
2023/09/25 19:02:48;;;;;;;11.60;9.00;;;;;;;19.96;78.25;100065.36;232728;214;139736;-63
2023/09/25 19:07:53;;;;;;;17.20;9.80;;;;;;;19.98;78.35;100068.11;232605;214;136989;-64
2023/09/25 19:12:57;;;;;;;16.10;10.40;;;;;;;19.98;78.27;100066.52;232778;214;148606;-64
2023/09/25 19:18:05;;;;;;;13.70;9.60;;;;;;;19.94;78.15;100070.63;232791;214;138680;-61
2023/09/25 19:23:09;;;;;;;15.20;9.50;;;;;;;19.92;78.46;100069.73;232751;214;138724;-65
2023/09/25 19:28:14;;;;;;;16.50;9.90;;;;;;;19.92;78.43;100074.20;232802;215;147405;-63
2023/09/25 19:33:19;;;;;;;14.80;9.90;;;;;;;19.97;78.48;100071.79;232679;214;140472;-63
2023/09/25 19:38:38;;;;;;;16.50;10.50;;;;;;;19.98;78.40;100067.40;232746;215;137574;-62
2023/09/25 19:43:48;;;;;;;13.70;9.50;;;;;;;19.93;78.24;100066.20;232741;215;147308;-63
2023/09/25 19:48:53;;;;;;;15.10;9.80;;;;;;;19.91;78.55;100064.40;232777;215;138984;-65
2023/09/25 19:53:59;;;;;;;31.50;23.50;;;;;;;20.00;79.09;100060.39;232629;214;138989;-65
2023/09/25 19:59:08;;;;;;;34.20;27.40;;;;;;;20.25;80.31;100055.88;232726;215;145542;-66
2023/09/25 20:04:15;;;;;;;31.90;23.60;;;;;;;20.48;80.15;100050.44;232881;215;140190;-62
2023/09/25 20:09:20;;;;;;;24.80;16.50;;;;;;;20.57;79.34;100044.83;232898;215;139427;-63
2023/09/25 20:14:24;;;;;;;20.20;13.70;;;;;;;20.69;78.77;100044.00;232739;215;146527;-64
2023/09/25 20:19:29;;;;;;;21.20;13.80;;;;;;;20.76;78.25;100039.70;232736;215;140555;-63
2023/09/25 20:24:33;;;;;;;33.50;25.40;;;;;;;20.84;77.95;100038.90;232877;214;138646;-62
2023/09/25 20:29:38;;;;;;;23.70;16.30;;;;;;;20.71;76.58;100036.45;232879;215;145713;-56
2023/09/25 20:34:43;;;;;;;14.50;9.40;;;;;;;20.52;76.45;100037.12;232790;215;139722;-55
2023/09/25 20:39:51;;;;;;;15.10;9.10;;;;;;;20.35;76.77;100041.18;232777;214;138643;-64
2023/09/25 20:44:57;;;;;;;11.20;9.00;;;;;;;20.20;77.13;100041.72;232789;215;146302;-61
2023/09/25 20:50:04;;;;;;;14.10;9.80;;;;;;;20.12;77.55;100044.02;232800;215;141121;-63
2023/09/25 20:55:09;;;;;;;12.80;9.40;;;;;;;20.04;77.70;100043.80;232748;214;138315;-63
2023/09/25 21:00:16;;;;;;;50.80;38.60;;;;;;;19.97;78.20;100039.17;232818;215;146478;-61
2023/09/25 21:05:20;;;;;;;16.20;9.70;;;;;;;20.02;78.42;100040.16;232898;215;139969;-62
2023/09/25 21:10:25;;;;;;;;;;;;;;;20.00;78.13;100041.30;232757;214;137828;-60
2023/09/25 21:15:29;;;;;;;296.90;260.10;;;;;;;19.96;78.37;100040.52;232658;215;146339;-60
2023/09/25 21:20:35;;;;;;;;;;;;;;;19.94;78.61;100041.27;232960;214;140240;-61
2023/09/25 21:25:42;;;;;;;15.70;11.00;;;;;;;19.89;78.53;100039.72;232909;215;131148;-57
2023/09/25 21:30:45;;;;;;;13.70;10.00;;;;;;;19.81;78.51;100040.02;232617;215;146071;-61
2023/09/25 21:35:52;;;;;;;16.50;9.80;;;;;;;19.75;78.85;100038.34;232886;215;138812;-60
2023/09/25 21:40:56;;;;;;;17.70;10.10;;;;;;;19.76;79.06;100034.48;232824;215;138776;-59
2023/09/25 21:46:01;;;;;;;14.20;10.20;;;;;;;19.77;79.08;100031.14;232851;215;146906;-59
2023/09/25 21:51:05;;;;;;;15.20;9.60;;;;;;;19.77;79.02;100026.52;232764;215;138693;-58
2023/09/25 21:56:10;;;;;;;13.80;8.80;;;;;;;19.71;78.93;100028.09;232618;214;137767;-56
2023/09/25 22:01:14;;;;;;;;;;;;;;;19.67;79.24;100024.62;232713;215;146984;-60
2023/09/25 22:06:19;;;;;;;16.60;9.90;;;;;;;19.65;79.38;100021.35;232711;214;138451;-59
2023/09/25 22:11:24;;;;;;;17.70;10.10;;;;;;;19.66;79.48;100022.05;232890;214;136878;-60
2023/09/25 22:16:31;;;;;;;19.00;10.70;;;;;;;19.64;79.67;100017.36;232692;214;146540;-59
2023/09/25 22:21:36;;;;;;;15.40;9.30;;;;;;;19.60;79.59;100017.73;232780;214;138687;-61
2023/09/25 22:26:40;;;;;;;16.50;10.30;;;;;;;19.58;79.86;100008.59;232761;215;138052;-60
2023/09/25 22:31:44;;;;;;;15.80;10.90;;;;;;;19.61;79.97;100003.12;232746;214;147543;-61
2023/09/25 22:36:49;;;;;;;16.70;10.60;;;;;;;19.65;79.85;100000.49;232651;215;139531;-59
2023/09/25 22:41:56;;;;;;;17.00;11.40;;;;;;;19.66;79.82;100000.79;232733;215;137763;-62
2023/09/25 22:47:01;;;;;;;19.70;10.80;;;;;;;19.66;79.90;99999.50;232714;215;148596;-60
2023/09/25 22:52:07;;;;;;;17.80;11.10;;;;;;;19.64;79.88;100000.23;232712;215;138865;-61
2023/09/25 22:57:13;;;;;;;18.10;11.50;;;;;;;19.63;79.91;99995.96;232684;215;137814;-64
2023/09/25 23:02:20;;;;;;;21.60;13.40;;;;;;;19.67;80.10;99992.27;232865;215;145594;-60
